This is the latest recevied weather packets stored in our database for station/object DL9LA-13. If no packets are shown the sender has not sent any weather packets the latest 10 day(s).
| Time | Temp. | Humidity | Pressure | Rain* | Wind** | Luminosity | Snow |
|---|---|---|---|---|---|---|---|
| 1778115559 | 11.67° C | 94% | 966 hPa | - | - | - | - |
| 1778114955 | 11.67° C | 94% | 966 hPa | - | - | - | - |
| 1778111937 | 12.22° C | 97% | 966 hPa | - | - | - | - |
| 1778111334 | 12.22° C | 97% | 966 hPa | - | - | - | - |
| 1778110730 | 12.22° C | 96% | 966 hPa | - | - | - | - |
| 1778110126 | 12.22° C | 96% | 966 hPa | - | - | - | - |
| 1778109522 | 12.22° C | 95% | 966 hPa | - | - | - | - |
| 1778108919 | 12.22° C | 95% | 966 hPa | - | - | - | - |
| 1778106504 | 12.78° C | 93% | 966 hPa | - | - | - | - |
| 1778104693 | 13.33° C | 94% | 965 hPa | - | - | - | - |
| 1778101675 | 13.33° C | 93% | 965 hPa | - | - | - | - |
| 1778094431 | 14.44° C | 94% | 963 hPa | - | - | - | - |
| 1778093224 | 14.44° C | 94% | 963 hPa | - | - | - | - |
| 1778092620 | 15° C | 93% | 963 hPa | - | - | - | - |
| 1778088999 | 16.11° C | 96% | 961 hPa | - | - | - | - |
| 1778087791 | 15° C | 100% | 961 hPa | - | - | - | - |
| 1778086584 | 15° C | 100% | 961 hPa | - | - | - | - |
| 1778084773 | 16.11° C | 84% | 962 hPa | - | - | - | - |
| 1778084169 | 15.56° C | 83% | 961 hPa | - | - | - | - |
| 1778082962 | 16.67° C | 72% | 962 hPa | - | - | - | - |
| 1778081151 | 20° C | 48% | 960 hPa | - | - | - | - |
| 1778079944 | 20.56° C | 47% | 959 hPa | - | - | - | - |
| 1778078133 | 21.67° C | 42% | 959 hPa | - | - | - | - |
| 1778075115 | 23.33° C | 40% | 960 hPa | - | - | - | - |
| 1778074511 | 22.22° C | 41% | 960 hPa | - | - | - | - |
* Rain since midnight (hover to see other rain measurements)
** Current wind speed in m/s (hover to see current wind gust speed)